sensor_id;sensor_type;location;lat;lon;timestamp;pressure;altitude;pressure_sealevel;temperature;humidity
70916;BME280;58557;50.982;-3.222;2023-02-19T00:01:47;101896.43;;;9.86;64.27
70916;BME280;58557;50.982;-3.222;2023-02-19T00:04:15;101902.71;;;10.26;62.43
70916;BME280;58557;50.982;-3.222;2023-02-19T00:06:39;101903.87;;;10.83;60.45
70916;BME280;58557;50.982;-3.222;2023-02-19T00:09:04;101904.00;;;11.31;58.41
70916;BME280;58557;50.982;-3.222;2023-02-19T00:11:31;101899.62;;;10.70;58.66
70916;BME280;58557;50.982;-3.222;2023-02-19T00:13:56;101899.28;;;10.98;58.31
70916;BME280;58557;50.982;-3.222;2023-02-19T00:16:22;101891.21;;;11.61;56.83
70916;BME280;58557;50.982;-3.222;2023-02-19T00:18:47;101890.26;;;11.34;56.01
70916;BME280;58557;50.982;-3.222;2023-02-19T00:21:13;101893.42;;;11.92;54.70
70916;BME280;58557;50.982;-3.222;2023-02-19T00:23:38;101899.42;;;10.42;59.45
70916;BME280;58557;50.982;-3.222;2023-02-19T00:26:05;101895.96;;;12.12;54.90
70916;BME280;58557;50.982;-3.222;2023-02-19T00:28:29;101907.35;;;9.89;58.76
70916;BME280;58557;50.982;-3.222;2023-02-19T00:30:55;101914.03;;;10.01;61.19
70916;BME280;58557;50.982;-3.222;2023-02-19T00:33:20;101918.74;;;10.37;60.26
70916;BME280;58557;50.982;-3.222;2023-02-19T00:35:46;101919.85;;;11.50;56.10
70916;BME280;58557;50.982;-3.222;2023-02-19T00:38:12;101924.59;;;10.36;58.55
70916;BME280;58557;50.982;-3.222;2023-02-19T00:40:37;101922.16;;;10.02;60.69
70916;BME280;58557;50.982;-3.222;2023-02-19T00:43:03;101925.65;;;9.70;61.65
70916;BME280;58557;50.982;-3.222;2023-02-19T00:45:29;101923.87;;;10.57;59.54
70916;BME280;58557;50.982;-3.222;2023-02-19T00:47:54;101920.63;;;10.51;60.76
70916;BME280;58557;50.982;-3.222;2023-02-19T00:50:20;101921.98;;;9.15;63.02
70916;BME280;58557;50.982;-3.222;2023-02-19T00:52:46;101928.13;;;10.63;59.63
70916;BME280;58557;50.982;-3.222;2023-02-19T00:55:12;101935.84;;;10.09;60.48
70916;BME280;58557;50.982;-3.222;2023-02-19T00:57:37;101944.45;;;11.13;57.81
70916;BME280;58557;50.982;-3.222;2023-02-19T01:00:04;101941.29;;;9.64;61.52
70916;BME280;58557;50.982;-3.222;2023-02-19T01:02:28;101949.15;;;10.55;59.02
70916;BME280;58557;50.982;-3.222;2023-02-19T01:04:54;101939.88;;;11.47;56.96
70916;BME280;58557;50.982;-3.222;2023-02-19T01:07:19;101952.47;;;11.40;57.22
70916;BME280;58557;50.982;-3.222;2023-02-19T01:09:44;101958.35;;;11.28;57.25
70916;BME280;58557;50.982;-3.222;2023-02-19T01:12:10;101952.42;;;10.20;59.29
70916;BME280;58557;50.982;-3.222;2023-02-19T01:14:36;101954.99;;;10.36;58.49
70916;BME280;58557;50.982;-3.222;2023-02-19T01:17:02;101950.44;;;9.41;60.11
70916;BME280;58557;50.982;-3.222;2023-02-19T01:19:27;101954.21;;;9.52;59.85
70916;BME280;58557;50.982;-3.222;2023-02-19T01:21:52;101953.10;;;8.69;62.14
70916;BME280;58557;50.982;-3.222;2023-02-19T01:24:18;101948.85;;;8.45;63.66
70916;BME280;58557;50.982;-3.222;2023-02-19T01:26:44;101943.70;;;8.86;63.28
70916;BME280;58557;50.982;-3.222;2023-02-19T01:29:09;101932.10;;;8.09;64.82
70916;BME280;58557;50.982;-3.222;2023-02-19T01:31:35;101928.03;;;8.34;63.61
70916;BME280;58557;50.982;-3.222;2023-02-19T01:34:02;101929.09;;;8.64;63.71
70916;BME280;58557;50.982;-3.222;2023-02-19T01:36:26;101937.09;;;8.80;62.27
70916;BME280;58557;50.982;-3.222;2023-02-19T01:38:52;101948.06;;;7.97;63.85
70916;BME280;58557;50.982;-3.222;2023-02-19T01:41:19;101956.92;;;9.76;59.03
70916;BME280;58557;50.982;-3.222;2023-02-19T01:43:55;101960.85;;;9.72;58.58
70916;BME280;58557;50.982;-3.222;2023-02-19T01:46:08;101959.85;;;10.42;56.40
70916;BME280;58557;50.982;-3.222;2023-02-19T01:48:36;101962.51;;;9.57;58.27
70916;BME280;58557;50.982;-3.222;2023-02-19T01:51:04;101957.32;;;10.55;55.47
70916;BME280;58557;50.982;-3.222;2023-02-19T01:53:27;101959.60;;;10.73;56.00
70916;BME280;58557;50.982;-3.222;2023-02-19T01:55:52;101960.64;;;10.70;55.67
70916;BME280;58557;50.982;-3.222;2023-02-19T01:58:15;101955.54;;;9.73;57.52
70916;BME280;58557;50.982;-3.222;2023-02-19T02:00:41;101961.28;;;10.82;54.62
70916;BME280;58557;50.982;-3.222;2023-02-19T02:03:07;101961.32;;;11.08;54.40
70916;BME280;58557;50.982;-3.222;2023-02-19T02:05:42;101966.05;;;9.83;57.19
70916;BME280;58557;50.982;-3.222;2023-02-19T02:08:00;101969.08;;;11.22;54.06
70916;BME280;58557;50.982;-3.222;2023-02-19T02:10:24;101973.29;;;10.93;54.94
70916;BME280;58557;50.982;-3.222;2023-02-19T02:12:52;101970.94;;;9.65;55.81
70916;BME280;58557;50.982;-3.222;2023-02-19T02:15:15;101969.86;;;11.61;52.90
70916;BME280;58557;50.982;-3.222;2023-02-19T02:17:48;101970.14;;;11.32;52.93
70916;BME280;58557;50.982;-3.222;2023-02-19T02:22:36;101971.30;;;11.03;53.38
70916;BME280;58557;50.982;-3.222;2023-02-19T02:25:10;101976.10;;;11.34;52.36
70916;BME280;58557;50.982;-3.222;2023-02-19T02:27:34;101973.14;;;9.53;56.41
70916;BME280;58557;50.982;-3.222;2023-02-19T02:30:04;101974.24;;;10.01;56.69
70916;BME280;58557;50.982;-3.222;2023-02-19T02:32:16;101974.72;;;11.05;53.92
70916;BME280;58557;50.982;-3.222;2023-02-19T02:34:42;101970.14;;;10.10;55.27
70916;BME280;58557;50.982;-3.222;2023-02-19T02:37:04;101969.99;;;11.57;53.12
70916;BME280;58557;50.982;-3.222;2023-02-19T02:39:30;101960.61;;;9.92;54.87
70916;BME280;58557;50.982;-3.222;2023-02-19T02:41:57;101970.15;;;10.73;54.07
70916;BME280;58557;50.982;-3.222;2023-02-19T02:44:20;101965.18;;;11.14;52.44
70916;BME280;58557;50.982;-3.222;2023-02-19T02:46:46;101968.56;;;11.78;50.92
70916;BME280;58557;50.982;-3.222;2023-02-19T02:49:15;101971.44;;;10.85;52.47
70916;BME280;58557;50.982;-3.222;2023-02-19T02:51:40;101973.15;;;9.84;55.95
70916;BME280;58557;50.982;-3.222;2023-02-19T02:54:06;101975.69;;;11.04;53.70
70916;BME280;58557;50.982;-3.222;2023-02-19T02:56:30;101975.10;;;11.17;52.91
70916;BME280;58557;50.982;-3.222;2023-02-19T02:58:55;101974.65;;;10.13;54.19
70916;BME280;58557;50.982;-3.222;2023-02-19T03:01:23;101977.60;;;9.52;56.05
70916;BME280;58557;50.982;-3.222;2023-02-19T03:03:49;101979.65;;;11.06;52.86
70916;BME280;58557;50.982;-3.222;2023-02-19T03:06:12;101990.50;;;11.21;52.47
70916;BME280;58557;50.982;-3.222;2023-02-19T03:08:40;101987.23;;;9.67;54.93
70916;BME280;58557;50.982;-3.222;2023-02-19T03:11:04;101985.28;;;10.98;52.91
70916;BME280;58557;50.982;-3.222;2023-02-19T03:13:31;101979.15;;;11.53;51.34
70916;BME280;58557;50.982;-3.222;2023-02-19T03:15:54;101979.88;;;8.98;57.82
70916;BME280;58557;50.982;-3.222;2023-02-19T03:18:18;101983.85;;;10.10;54.36
70916;BME280;58557;50.982;-3.222;2023-02-19T03:20:45;101988.96;;;11.68;50.84
70916;BME280;58557;50.982;-3.222;2023-02-19T03:23:10;101996.94;;;11.52;50.77
70916;BME280;58557;50.982;-3.222;2023-02-19T03:25:35;102001.07;;;9.94;52.47
70916;BME280;58557;50.982;-3.222;2023-02-19T03:28:01;102002.84;;;11.59;50.85
70916;BME280;58557;50.982;-3.222;2023-02-19T03:30:28;102003.09;;;11.53;50.79
70916;BME280;58557;50.982;-3.222;2023-02-19T03:32:53;102002.65;;;11.42;50.12
70916;BME280;58557;50.982;-3.222;2023-02-19T03:35:18;101989.18;;;11.96;48.47
70916;BME280;58557;50.982;-3.222;2023-02-19T03:37:44;101999.89;;;11.68;49.42
70916;BME280;58557;50.982;-3.222;2023-02-19T03:40:08;102003.47;;;11.81;48.12
70916;BME280;58557;50.982;-3.222;2023-02-19T03:42:37;102003.96;;;11.96;48.42
70916;BME280;58557;50.982;-3.222;2023-02-19T03:45:10;102008.11;;;12.03;47.48
70916;BME280;58557;50.982;-3.222;2023-02-19T03:47:26;102009.47;;;12.61;46.75
70916;BME280;58557;50.982;-3.222;2023-02-19T03:49:52;102011.87;;;12.42;46.06
70916;BME280;58557;50.982;-3.222;2023-02-19T03:52:17;102020.95;;;11.69;47.10
70916;BME280;58557;50.982;-3.222;2023-02-19T03:54:45;102024.34;;;11.51;47.49
70916;BME280;58557;50.982;-3.222;2023-02-19T03:57:11;102020.62;;;12.31;45.88
70916;BME280;58557;50.982;-3.222;2023-02-19T03:59:33;102021.26;;;12.40;45.53
70916;BME280;58557;50.982;-3.222;2023-02-19T04:02:00;102014.16;;;11.95;46.41
70916;BME280;58557;50.982;-3.222;2023-02-19T04:04:25;102024.54;;;11.51;47.57
70916;BME280;58557;50.982;-3.222;2023-02-19T04:06:51;102031.70;;;11.56;48.26
70916;BME280;58557;50.982;-3.222;2023-02-19T04:09:13;102030.26;;;11.23;48.97
70916;BME280;58557;50.982;-3.222;2023-02-19T04:11:38;102030.23;;;12.08;47.99
70916;BME280;58557;50.982;-3.222;2023-02-19T04:14:07;102033.81;;;10.97;49.35
70916;BME280;58557;50.982;-3.222;2023-02-19T04:16:29;102040.10;;;11.04;48.63
70916;BME280;58557;50.982;-3.222;2023-02-19T04:18:57;102038.83;;;9.66;51.28
70916;BME280;58557;50.982;-3.222;2023-02-19T04:21:21;102034.59;;;11.07;49.60
70916;BME280;58557;50.982;-3.222;2023-02-19T04:23:45;102024.47;;;12.24;47.30
70916;BME280;58557;50.982;-3.222;2023-02-19T04:26:12;102029.96;;;12.61;46.65
70916;BME280;58557;50.982;-3.222;2023-02-19T04:28:37;102037.65;;;12.34;46.06
70916;BME280;58557;50.982;-3.222;2023-02-19T04:31:02;102040.58;;;12.55;46.04
70916;BME280;58557;50.982;-3.222;2023-02-19T04:33:27;102049.77;;;12.27;46.82
70916;BME280;58557;50.982;-3.222;2023-02-19T04:35:52;102051.01;;;12.15;46.62
70916;BME280;58557;50.982;-3.222;2023-02-19T04:38:17;102042.23;;;12.87;45.51
70916;BME280;58557;50.982;-3.222;2023-02-19T04:40:42;102039.57;;;12.93;45.19
70916;BME280;58557;50.982;-3.222;2023-02-19T04:43:07;102048.13;;;11.74;46.67
70916;BME280;58557;50.982;-3.222;2023-02-19T04:45:32;102048.75;;;12.94;45.64
70916;BME280;58557;50.982;-3.222;2023-02-19T04:47:57;102045.80;;;11.55;47.40
70916;BME280;58557;50.982;-3.222;2023-02-19T04:50:22;102044.77;;;11.41;48.36
70916;BME280;58557;50.982;-3.222;2023-02-19T04:52:48;102040.96;;;12.36;46.06
70916;BME280;58557;50.982;-3.222;2023-02-19T04:55:13;102042.34;;;12.84;45.21
70916;BME280;58557;50.982;-3.222;2023-02-19T04:57:38;102040.47;;;12.52;45.12
70916;BME280;58557;50.982;-3.222;2023-02-19T05:00:04;102048.26;;;12.37;45.45
70916;BME280;58557;50.982;-3.222;2023-02-19T05:02:28;102060.24;;;12.58;44.95
70916;BME280;58557;50.982;-3.222;2023-02-19T05:04:53;102059.19;;;12.47;44.68
70916;BME280;58557;50.982;-3.222;2023-02-19T05:07:19;102058.47;;;12.11;46.60
70916;BME280;58557;50.982;-3.222;2023-02-19T05:09:44;102048.51;;;11.88;46.67
70916;BME280;58557;50.982;-3.222;2023-02-19T05:12:09;102050.31;;;10.50;50.19
70916;BME280;58557;50.982;-3.222;2023-02-19T05:14:34;102054.06;;;10.78;51.03
70916;BME280;58557;50.982;-3.222;2023-02-19T05:17:00;102062.90;;;10.86;49.45
70916;BME280;58557;50.982;-3.222;2023-02-19T05:19:25;102077.19;;;10.73;50.89
70916;BME280;58557;50.982;-3.222;2023-02-19T05:21:50;102075.56;;;10.08;51.22
70916;BME280;58557;50.982;-3.222;2023-02-19T05:24:15;102081.85;;;11.18;49.14
70916;BME280;58557;50.982;-3.222;2023-02-19T05:26:40;102080.89;;;10.98;50.17
70916;BME280;58557;50.982;-3.222;2023-02-19T05:29:06;102088.73;;;11.94;48.56
70916;BME280;58557;50.982;-3.222;2023-02-19T05:31:31;102089.90;;;11.62;47.91
70916;BME280;58557;50.982;-3.222;2023-02-19T05:33:56;102097.80;;;11.86;47.50
70916;BME280;58557;50.982;-3.222;2023-02-19T05:36:22;102103.09;;;12.49;46.29
70916;BME280;58557;50.982;-3.222;2023-02-19T05:38:51;102106.88;;;11.40;47.78
70916;BME280;58557;50.982;-3.222;2023-02-19T05:41:14;102102.90;;;10.05;51.30
70916;BME280;58557;50.982;-3.222;2023-02-19T05:43:37;102105.12;;;10.43;52.49
70916;BME280;58557;50.982;-3.222;2023-02-19T05:46:02;102099.77;;;10.49;50.94
70916;BME280;58557;50.982;-3.222;2023-02-19T05:48:27;102103.86;;;8.81;55.86
70916;BME280;58557;50.982;-3.222;2023-02-19T05:50:52;102112.98;;;10.86;51.35
70916;BME280;58557;50.982;-3.222;2023-02-19T05:53:18;102126.28;;;9.64;53.91
70916;BME280;58557;50.982;-3.222;2023-02-19T05:55:42;102124.44;;;10.84;51.89
70916;BME280;58557;50.982;-3.222;2023-02-19T05:58:08;102120.35;;;10.10;51.27
70916;BME280;58557;50.982;-3.222;2023-02-19T06:00:34;102118.04;;;10.66;49.81
70916;BME280;58557;50.982;-3.222;2023-02-19T06:03:00;102120.72;;;9.34;53.21
70916;BME280;58557;50.982;-3.222;2023-02-19T06:05:24;102122.33;;;10.00;52.11
70916;BME280;58557;50.982;-3.222;2023-02-19T06:07:49;102129.37;;;10.87;49.67
70916;BME280;58557;50.982;-3.222;2023-02-19T06:10:15;102126.81;;;11.59;48.74
70916;BME280;58557;50.982;-3.222;2023-02-19T06:12:40;102131.14;;;11.90;47.00
70916;BME280;58557;50.982;-3.222;2023-02-19T06:15:06;102141.63;;;11.60;47.31
70916;BME280;58557;50.982;-3.222;2023-02-19T06:17:30;102148.32;;;11.67;48.19
70916;BME280;58557;50.982;-3.222;2023-02-19T06:19:55;102149.02;;;11.16;47.48
70916;BME280;58557;50.982;-3.222;2023-02-19T06:22:21;102146.48;;;11.98;46.35
70916;BME280;58557;50.982;-3.222;2023-02-19T06:24:47;102149.37;;;10.43;48.27
70916;BME280;58557;50.982;-3.222;2023-02-19T06:27:11;102158.20;;;11.58;46.57
70916;BME280;58557;50.982;-3.222;2023-02-19T06:29:36;102158.72;;;11.77;47.24
70916;BME280;58557;50.982;-3.222;2023-02-19T06:32:02;102162.40;;;11.83;46.66
70916;BME280;58557;50.982;-3.222;2023-02-19T06:34:27;102160.41;;;12.00;46.84
70916;BME280;58557;50.982;-3.222;2023-02-19T06:36:52;102167.29;;;11.58;47.00
70916;BME280;58557;50.982;-3.222;2023-02-19T06:39:17;102168.50;;;12.08;47.32
70916;BME280;58557;50.982;-3.222;2023-02-19T06:41:42;102166.02;;;11.66;47.28
70916;BME280;58557;50.982;-3.222;2023-02-19T06:44:07;102165.30;;;11.72;46.76
70916;BME280;58557;50.982;-3.222;2023-02-19T06:46:32;102160.69;;;10.89;49.13
70916;BME280;58557;50.982;-3.222;2023-02-19T06:48:57;102158.90;;;11.51;48.66
70916;BME280;58557;50.982;-3.222;2023-02-19T06:51:22;102159.18;;;11.51;46.37
70916;BME280;58557;50.982;-3.222;2023-02-19T06:53:47;102156.80;;;11.10;46.78
70916;BME280;58557;50.982;-3.222;2023-02-19T06:56:23;102170.32;;;12.35;45.46
70916;BME280;58557;50.982;-3.222;2023-02-19T06:58:38;102183.20;;;12.62;45.01
70916;BME280;58557;50.982;-3.222;2023-02-19T07:01:04;102193.89;;;12.34;45.28
70916;BME280;58557;50.982;-3.222;2023-02-19T07:03:29;102198.52;;;11.65;46.19
70916;BME280;58557;50.982;-3.222;2023-02-19T07:05:58;102206.72;;;11.42;46.76
70916;BME280;58557;50.982;-3.222;2023-02-19T07:08:20;102202.75;;;11.65;47.13
70916;BME280;58557;50.982;-3.222;2023-02-19T07:13:11;102195.82;;;10.38;48.26
70916;BME280;58557;50.982;-3.222;2023-02-19T07:15:36;102202.07;;;10.73;46.93
70916;BME280;58557;50.982;-3.222;2023-02-19T07:18:01;102201.79;;;11.63;47.54
70916;BME280;58557;50.982;-3.222;2023-02-19T07:20:26;102200.99;;;10.81;47.01
70916;BME280;58557;50.982;-3.222;2023-02-19T07:22:51;102200.17;;;10.75;47.34
70916;BME280;58557;50.982;-3.222;2023-02-19T07:25:17;102202.12;;;10.89;49.83
70916;BME280;58557;50.982;-3.222;2023-02-19T07:27:42;102200.50;;;10.36;49.25
70916;BME280;58557;50.982;-3.222;2023-02-19T07:30:09;102198.94;;;10.50;49.67
70916;BME280;58557;50.982;-3.222;2023-02-19T07:32:33;102192.53;;;10.91;50.22
70916;BME280;58557;50.982;-3.222;2023-02-19T07:34:58;102204.42;;;10.44;50.17
70916;BME280;58557;50.982;-3.222;2023-02-19T07:37:23;102212.98;;;10.31;51.86
70916;BME280;58557;50.982;-3.222;2023-02-19T07:39:49;102203.47;;;11.46;48.84
70916;BME280;58557;50.982;-3.222;2023-02-19T07:42:14;102198.48;;;11.71;48.52
70916;BME280;58557;50.982;-3.222;2023-02-19T07:44:39;102197.65;;;11.79;47.78
70916;BME280;58557;50.982;-3.222;2023-02-19T07:47:05;102191.90;;;12.11;48.34
70916;BME280;58557;50.982;-3.222;2023-02-19T07:49:30;102188.96;;;11.59;48.13
70916;BME280;58557;50.982;-3.222;2023-02-19T07:51:55;102183.03;;;9.96;51.15
70916;BME280;58557;50.982;-3.222;2023-02-19T07:54:21;102190.15;;;9.48;54.10
70916;BME280;58557;50.982;-3.222;2023-02-19T07:56:46;102195.74;;;9.05;55.27
70916;BME280;58557;50.982;-3.222;2023-02-19T07:59:12;102185.59;;;8.67;56.71
70916;BME280;58557;50.982;-3.222;2023-02-19T08:01:38;102176.52;;;10.51;53.42
70916;BME280;58557;50.982;-3.222;2023-02-19T08:04:04;102183.38;;;10.91;52.40
70916;BME280;58557;50.982;-3.222;2023-02-19T08:06:29;102191.23;;;10.50;53.66
70916;BME280;58557;50.982;-3.222;2023-02-19T08:08:55;102195.57;;;10.85;51.01
70916;BME280;58557;50.982;-3.222;2023-02-19T08:11:20;102183.19;;;11.60;49.88
70916;BME280;58557;50.982;-3.222;2023-02-19T08:13:47;102173.71;;;10.97;51.95
70916;BME280;58557;50.982;-3.222;2023-02-19T08:16:13;102170.00;;;11.38;51.48
70916;BME280;58557;50.982;-3.222;2023-02-19T08:18:37;102177.38;;;10.61;52.74
70916;BME280;58557;50.982;-3.222;2023-02-19T08:21:03;102193.19;;;11.28;50.80
70916;BME280;58557;50.982;-3.222;2023-02-19T08:23:28;102202.87;;;11.68;50.05
70916;BME280;58557;50.982;-3.222;2023-02-19T08:25:56;102204.76;;;12.43;48.46
70916;BME280;58557;50.982;-3.222;2023-02-19T08:28:19;102199.95;;;12.09;49.01
70916;BME280;58557;50.982;-3.222;2023-02-19T08:30:46;102190.62;;;10.20;52.61
70916;BME280;58557;50.982;-3.222;2023-02-19T08:33:12;102183.30;;;10.79;51.53
70916;BME280;58557;50.982;-3.222;2023-02-19T08:35:36;102188.34;;;11.52;51.23
70916;BME280;58557;50.982;-3.222;2023-02-19T08:38:02;102198.92;;;11.53;52.67
70916;BME280;58557;50.982;-3.222;2023-02-19T08:40:27;102212.97;;;13.23;47.91
70916;BME280;58557;50.982;-3.222;2023-02-19T08:42:53;102215.55;;;13.54;47.06
70916;BME280;58557;50.982;-3.222;2023-02-19T08:45:19;102226.34;;;14.23;46.03
70916;BME280;58557;50.982;-3.222;2023-02-19T08:47:45;102235.77;;;13.73;45.84
70916;BME280;58557;50.982;-3.222;2023-02-19T08:50:10;102239.42;;;13.24;46.98
70916;BME280;58557;50.982;-3.222;2023-02-19T08:52:36;102242.80;;;13.41;46.43
70916;BME280;58557;50.982;-3.222;2023-02-19T08:55:03;102244.48;;;14.15;44.39
70916;BME280;58557;50.982;-3.222;2023-02-19T08:57:27;102249.08;;;13.24;47.64
70916;BME280;58557;50.982;-3.222;2023-02-19T08:59:54;102245.22;;;13.72;45.78
70916;BME280;58557;50.982;-3.222;2023-02-19T09:02:19;102246.47;;;14.84;44.05
70916;BME280;58557;50.982;-3.222;2023-02-19T09:04:45;102246.87;;;14.61;44.27
70916;BME280;58557;50.982;-3.222;2023-02-19T09:07:11;102253.52;;;14.30;44.30
70916;BME280;58557;50.982;-3.222;2023-02-19T09:09:36;102252.38;;;14.50;44.29
70916;BME280;58557;50.982;-3.222;2023-02-19T09:12:00;102251.04;;;13.95;45.09
70916;BME280;58557;50.982;-3.222;2023-02-19T09:14:26;102247.90;;;13.81;45.15
70916;BME280;58557;50.982;-3.222;2023-02-19T09:16:52;102247.60;;;15.03;44.49
70916;BME280;58557;50.982;-3.222;2023-02-19T09:19:18;102242.82;;;15.05;43.86
70916;BME280;58557;50.982;-3.222;2023-02-19T09:21:44;102251.12;;;14.64;43.74
70916;BME280;58557;50.982;-3.222;2023-02-19T09:24:09;102264.24;;;14.34;45.42
70916;BME280;58557;50.982;-3.222;2023-02-19T09:26:35;102267.21;;;15.58;43.24
70916;BME280;58557;50.982;-3.222;2023-02-19T09:29:01;102270.82;;;14.83;43.35
70916;BME280;58557;50.982;-3.222;2023-02-19T09:31:26;102277.57;;;14.43;45.84
70916;BME280;58557;50.982;-3.222;2023-02-19T09:33:52;102284.38;;;12.78;48.10
70916;BME280;58557;50.982;-3.222;2023-02-19T09:36:18;102285.37;;;12.86;47.53
70916;BME280;58557;50.982;-3.222;2023-02-19T09:38:43;102284.66;;;13.04;45.87
70916;BME280;58557;50.982;-3.222;2023-02-19T09:41:15;102290.38;;;13.72;46.56
70916;BME280;58557;50.982;-3.222;2023-02-19T09:43:35;102297.00;;;12.78;47.11
70916;BME280;58557;50.982;-3.222;2023-02-19T09:46:02;102297.28;;;12.38;47.73
70916;BME280;58557;50.982;-3.222;2023-02-19T09:48:25;102298.04;;;14.11;45.80
70916;BME280;58557;50.982;-3.222;2023-02-19T09:50:51;102301.07;;;14.22;45.71
70916;BME280;58557;50.982;-3.222;2023-02-19T09:53:19;102301.93;;;14.84;44.89
70916;BME280;58557;50.982;-3.222;2023-02-19T09:55:42;102299.11;;;11.40;50.72
70916;BME280;58557;50.982;-3.222;2023-02-19T09:58:17;102308.16;;;12.78;49.11
70916;BME280;58557;50.982;-3.222;2023-02-19T10:00:35;102315.00;;;12.48;49.13
70916;BME280;58557;50.982;-3.222;2023-02-19T10:03:03;102311.00;;;13.31;48.23
70916;BME280;58557;50.982;-3.222;2023-02-19T10:05:25;102307.95;;;13.52;48.61
70916;BME280;58557;50.982;-3.222;2023-02-19T10:07:53;102309.59;;;14.71;47.07
70916;BME280;58557;50.982;-3.222;2023-02-19T10:10:24;102313.05;;;13.72;48.23
70916;BME280;58557;50.982;-3.222;2023-02-19T10:12:46;102312.21;;;13.82;48.06
70916;BME280;58557;50.982;-3.222;2023-02-19T10:15:18;102318.19;;;14.00;47.64
70916;BME280;58557;50.982;-3.222;2023-02-19T10:17:34;102327.96;;;14.04;47.01
70916;BME280;58557;50.982;-3.222;2023-02-19T10:20:00;102328.14;;;15.29;45.19
70916;BME280;58557;50.982;-3.222;2023-02-19T10:22:25;102323.00;;;13.64;45.95
70916;BME280;58557;50.982;-3.222;2023-02-19T10:24:53;102313.44;;;14.65;46.55
70916;BME280;58557;50.982;-3.222;2023-02-19T10:27:17;102300.79;;;14.61;45.57
70916;BME280;58557;50.982;-3.222;2023-02-19T10:29:43;102298.21;;;14.98;45.35
70916;BME280;58557;50.982;-3.222;2023-02-19T10:32:16;102309.27;;;15.23;46.15
70916;BME280;58557;50.982;-3.222;2023-02-19T10:34:33;102309.06;;;13.58;47.56
70916;BME280;58557;50.982;-3.222;2023-02-19T10:36:59;102309.03;;;14.84;46.51
70916;BME280;58557;50.982;-3.222;2023-02-19T10:39:37;102310.47;;;14.96;46.68
70916;BME280;58557;50.982;-3.222;2023-02-19T10:41:51;102320.77;;;15.24;45.53
70916;BME280;58557;50.982;-3.222;2023-02-19T10:44:20;102331.12;;;13.41;47.24
70916;BME280;58557;50.982;-3.222;2023-02-19T10:46:44;102332.34;;;14.47;47.09
70916;BME280;58557;50.982;-3.222;2023-02-19T10:49:18;102328.11;;;14.47;46.48
70916;BME280;58557;50.982;-3.222;2023-02-19T10:51:34;102329.74;;;11.50;52.48
70916;BME280;58557;50.982;-3.222;2023-02-19T10:54:05;102336.50;;;13.67;48.35
70916;BME280;58557;50.982;-3.222;2023-02-19T10:56:26;102329.06;;;13.60;48.99
70916;BME280;58557;50.982;-3.222;2023-02-19T10:58:50;102324.56;;;13.60;47.39
70916;BME280;58557;50.982;-3.222;2023-02-19T11:01:18;102326.35;;;12.88;49.84
70916;BME280;58557;50.982;-3.222;2023-02-19T11:03:41;102324.02;;;13.23;49.22
70916;BME280;58557;50.982;-3.222;2023-02-19T11:06:08;102317.79;;;12.42;51.46
70916;BME280;58557;50.982;-3.222;2023-02-19T11:10:56;102323.16;;;13.76;47.18
70916;BME280;58557;50.982;-3.222;2023-02-19T11:13:27;102313.82;;;11.75;52.52
70916;BME280;58557;50.982;-3.222;2023-02-19T11:15:51;102309.18;;;11.62;52.63
70916;BME280;58557;50.982;-3.222;2023-02-19T11:18:20;102307.94;;;13.20;48.97
70916;BME280;58557;50.982;-3.222;2023-02-19T11:20:45;102304.04;;;11.25;53.11
70916;BME280;58557;50.982;-3.222;2023-02-19T11:23:12;102304.96;;;11.34;55.21
70916;BME280;58557;50.982;-3.222;2023-02-19T11:25:30;102313.92;;;12.12;53.07
70916;BME280;58557;50.982;-3.222;2023-02-19T11:27:58;102321.10;;;11.46;53.47
70916;BME280;58557;50.982;-3.222;2023-02-19T11:30:33;102326.72;;;13.11;50.14
70916;BME280;58557;50.982;-3.222;2023-02-19T11:32:47;102328.49;;;12.32;51.91
70916;BME280;58557;50.982;-3.222;2023-02-19T11:35:17;102330.03;;;13.12;50.09
70916;BME280;58557;50.982;-3.222;2023-02-19T11:37:52;102323.75;;;11.84;53.46
70916;BME280;58557;50.982;-3.222;2023-02-19T11:40:05;102322.53;;;12.01;53.68
70916;BME280;58557;50.982;-3.222;2023-02-19T11:42:40;102322.41;;;11.99;53.33
70916;BME280;58557;50.982;-3.222;2023-02-19T11:45:08;102326.24;;;12.27;53.05
70916;BME280;58557;50.982;-3.222;2023-02-19T11:47:31;102322.20;;;10.86;54.95
70916;BME280;58557;50.982;-3.222;2023-02-19T11:49:53;102322.77;;;12.74;52.93
70916;BME280;58557;50.982;-3.222;2023-02-19T11:52:22;102320.98;;;12.46;51.69
70916;BME280;58557;50.982;-3.222;2023-02-19T11:54:46;102323.62;;;10.45;55.76
70916;BME280;58557;50.982;-3.222;2023-02-19T11:57:10;102328.56;;;11.89;53.74
70916;BME280;58557;50.982;-3.222;2023-02-19T11:59:34;102325.02;;;12.38;52.41
70916;BME280;58557;50.982;-3.222;2023-02-19T12:04:44;102320.55;;;12.54;53.89
70916;BME280;58557;50.982;-3.222;2023-02-19T12:06:54;102327.69;;;11.71;52.93
70916;BME280;58557;50.982;-3.222;2023-02-19T12:09:21;102329.80;;;12.81;51.17
70916;BME280;58557;50.982;-3.222;2023-02-19T12:11:48;102322.46;;;11.67;54.98
70916;BME280;58557;50.982;-3.222;2023-02-19T12:16:34;102325.74;;;13.55;48.05
70916;BME280;58557;50.982;-3.222;2023-02-19T12:19:12;102327.50;;;12.48;51.35
70916;BME280;58557;50.982;-3.222;2023-02-19T12:21:31;102326.54;;;12.91;50.05
70916;BME280;58557;50.982;-3.222;2023-02-19T12:24:00;102315.90;;;14.15;48.69
70916;BME280;58557;50.982;-3.222;2023-02-19T12:26:20;102314.71;;;13.32;51.02
70916;BME280;58557;50.982;-3.222;2023-02-19T12:28:56;102313.50;;;12.54;50.20
70916;BME280;58557;50.982;-3.222;2023-02-19T12:31:18;102316.45;;;12.80;50.99
70916;BME280;58557;50.982;-3.222;2023-02-19T12:33:42;102308.27;;;12.56;49.27
70916;BME280;58557;50.982;-3.222;2023-02-19T12:36:03;102305.29;;;12.84;49.77
70916;BME280;58557;50.982;-3.222;2023-02-19T12:38:23;102299.74;;;15.05;45.95
70916;BME280;58557;50.982;-3.222;2023-02-19T12:40:57;102304.42;;;13.54;46.99
70916;BME280;58557;50.982;-3.222;2023-02-19T12:43:16;102296.75;;;11.77;49.95